createdAt,value
2022-12-11T00:02:25.087Z,81.03
2022-12-11T00:04:51.849Z,88.90
2022-12-11T00:07:18.613Z,81.53
2022-12-11T00:09:45.323Z,65.13
2022-12-11T00:12:13.421Z,76.57
2022-12-11T00:14:40.240Z,62.30
2022-12-11T00:17:07.290Z,41.88
2022-12-11T00:19:34.198Z,81.43
2022-12-11T00:22:00.933Z,54.47
2022-12-11T00:24:30.811Z,41.00
2022-12-11T00:26:57.558Z,71.47
2022-12-11T00:29:25.740Z,89.68
2022-12-11T00:32:08.472Z,51.20
2022-12-11T00:34:35.205Z,92.28
2022-12-11T00:37:01.971Z,72.13
2022-12-11T00:39:28.784Z,75.70
2022-12-11T00:41:55.513Z,70.53
2022-12-11T00:44:22.384Z,66.65
2022-12-11T00:46:51.706Z,88.72
2022-12-11T00:49:18.432Z,63.40
2022-12-11T00:51:47.060Z,48.47
2022-12-11T00:54:13.893Z,95.28
2022-12-11T00:56:40.617Z,69.82
2022-12-11T00:59:08.885Z,93.55
2022-12-11T01:01:35.758Z,75.50
2022-12-11T01:04:03.981Z,55.42
2022-12-11T01:06:30.734Z,75.35
2022-12-11T01:08:57.878Z,67.97
2022-12-11T01:11:24.849Z,73.18
2022-12-11T01:13:51.589Z,71.35
2022-12-11T01:16:18.754Z,52.78
2022-12-11T01:18:45.530Z,41.85
2022-12-11T01:21:16.269Z,95.97
2022-12-11T01:23:43.033Z,47.00
2022-12-11T01:26:11.857Z,89.53
2022-12-11T01:28:42.522Z,90.43
2022-12-11T01:31:12.747Z,79.63
2022-12-11T01:33:41.930Z,85.88
2022-12-11T01:36:10.460Z,56.08
2022-12-11T01:38:40.714Z,102.57
2022-12-11T01:41:07.960Z,77.18
2022-12-11T01:43:35.267Z,56.88
2022-12-11T01:46:03.461Z,55.00
2022-12-11T01:48:32.941Z,100.68
2022-12-11T01:51:05.071Z,89.68
2022-12-11T01:53:39.567Z,84.65
2022-12-11T01:56:07.881Z,74.50
2022-12-11T01:58:39.885Z,89.30
2022-12-11T02:01:06.672Z,66.95
2022-12-11T02:03:35.574Z,79.38
2022-12-11T02:06:02.376Z,107.18
2022-12-11T02:08:29.670Z,103.45
2022-12-11T02:11:06.262Z,126.55
2022-12-11T02:13:44.745Z,84.90
2022-12-11T02:16:21.218Z,98.60
2022-12-11T02:18:55.010Z,74.07
2022-12-11T02:21:26.844Z,90.35
2022-12-11T02:24:15.416Z,54.72
2022-12-11T02:27:08.107Z,91.18
2022-12-11T02:29:38.947Z,95.93
2022-12-11T02:32:13.493Z,112.50
2022-12-11T02:34:44.330Z,75.75
2022-12-11T02:37:16.305Z,90.07
2022-12-11T02:39:45.059Z,78.00
2022-12-11T02:42:19.004Z,111.43
2022-12-11T02:44:50.566Z,110.13
2022-12-11T02:47:21.022Z,81.25
2022-12-11T02:49:49.915Z,108.45
2022-12-11T02:52:23.509Z,100.25
2022-12-11T02:54:52.124Z,70.05
2022-12-11T02:57:27.626Z,100.55
2022-12-11T02:59:55.733Z,81.82
2022-12-11T03:02:22.777Z,116.07
2022-12-11T03:04:50.133Z,91.97
2022-12-11T03:07:21.742Z,80.60
2022-12-11T03:09:49.622Z,88.72
2022-12-11T03:12:20.326Z,73.75
2022-12-11T03:14:47.866Z,84.45
2022-12-11T03:17:18.029Z,70.38
2022-12-11T03:19:55.183Z,85.97
2022-12-11T03:22:33.805Z,74.80
2022-12-11T03:25:04.746Z,98.65
2022-12-11T03:27:36.687Z,69.28
2022-12-11T03:30:12.654Z,58.88
2022-12-11T03:32:48.790Z,86.63
2022-12-11T03:35:23.124Z,88.47
2022-12-11T03:37:52.875Z,79.35
2022-12-11T03:40:22.860Z,63.28
2022-12-11T03:42:51.865Z,98.32
2022-12-11T03:47:53.649Z,75.82
2022-12-11T03:50:22.654Z,85.88
2022-12-11T03:55:19.089Z,58.05
2022-12-11T03:57:45.804Z,82.00
2022-12-11T04:00:15.404Z,54.88
2022-12-11T04:02:42.794Z,47.33
2022-12-11T04:05:12.341Z,71.95
2022-12-11T04:07:39.372Z,78.78
2022-12-11T04:10:06.464Z,75.00
2022-12-11T04:12:33.232Z,62.42
2022-12-11T04:15:02.037Z,67.28
2022-12-11T04:17:29.345Z,87.63
2022-12-11T04:19:56.085Z,79.63
2022-12-11T04:22:27.232Z,73.15
2022-12-11T04:24:54.055Z,49.40
2022-12-11T04:27:21.597Z,68.97
2022-12-11T04:29:48.312Z,72.90
2022-12-11T04:32:15.022Z,58.88
2022-12-11T04:34:41.816Z,78.75
2022-12-11T04:37:08.545Z,61.78
2022-12-11T04:39:36.592Z,74.97
2022-12-11T04:42:03.494Z,57.83
2022-12-11T04:44:30.279Z,66.13
2022-12-11T04:46:57.008Z,63.83
2022-12-11T04:49:26.453Z,74.60
2022-12-11T04:51:53.218Z,45.50
2022-12-11T04:54:23.793Z,60.55
2022-12-11T04:56:51.919Z,58.67
2022-12-11T04:59:18.667Z,61.10
2022-12-11T05:01:45.421Z,41.00
2022-12-11T05:04:12.162Z,45.28
2022-12-11T05:06:41.013Z,52.47
2022-12-11T05:09:10.950Z,44.30
2022-12-11T05:11:40.491Z,28.92
2022-12-11T05:14:10.904Z,53.53
2022-12-11T05:16:37.641Z,54.45
2022-12-11T05:19:06.329Z,50.22
2022-12-11T05:21:35.221Z,49.28
2022-12-11T05:24:05.493Z,35.80
2022-12-11T05:26:32.213Z,48.90
2022-12-11T05:28:58.913Z,40.40
2022-12-11T05:31:27.820Z,46.10
2022-12-11T05:34:09.639Z,38.70
2022-12-11T05:36:36.346Z,46.33
2022-12-11T05:39:14.779Z,34.63
2022-12-11T05:41:41.520Z,39.72
2022-12-11T05:44:11.292Z,29.63
2022-12-11T05:46:39.899Z,29.40
2022-12-11T05:49:06.768Z,39.35
2022-12-11T05:51:34.597Z,41.20
2022-12-11T05:54:04.346Z,47.35
2022-12-11T05:56:33.185Z,39.95
2022-12-11T05:59:01.230Z,40.42
2022-12-11T06:01:30.740Z,28.77
2022-12-11T06:03:59.486Z,37.25
2022-12-11T06:06:27.510Z,33.05
2022-12-11T06:08:56.875Z,36.42
2022-12-11T06:11:24.694Z,37.05
2022-12-11T06:13:51.674Z,32.42
2022-12-11T06:16:18.711Z,33.90
2022-12-11T06:18:46.013Z,37.25
2022-12-11T06:21:16.511Z,32.53
2022-12-11T06:23:43.983Z,38.10
2022-12-11T06:26:14.711Z,27.48
2022-12-11T06:28:41.466Z,33.90
2022-12-11T06:31:08.371Z,34.88
2022-12-11T06:33:35.456Z,29.15
2022-12-11T06:36:02.522Z,26.13
2022-12-11T06:38:30.774Z,34.47
2022-12-11T06:40:58.359Z,33.60
2022-12-11T06:43:25.393Z,36.85
2022-12-11T06:45:52.705Z,34.65
2022-12-11T06:48:20.166Z,26.77
2022-12-11T06:50:47.052Z,23.85
2022-12-11T06:53:15.124Z,30.60
2022-12-11T06:55:43.292Z,32.13
2022-12-11T06:58:10.389Z,30.40
2022-12-11T07:00:37.992Z,28.52
2022-12-11T07:03:05.084Z,23.88
2022-12-11T07:05:32.424Z,29.35
2022-12-11T07:07:59.241Z,26.15
2022-12-11T07:10:26.033Z,26.00
2022-12-11T07:12:56.924Z,30.23
2022-12-11T07:15:23.660Z,16.15
2022-12-11T07:17:50.860Z,30.08
2022-12-11T07:20:17.986Z,23.35
2022-12-11T07:22:46.585Z,27.27
2022-12-11T07:27:41.111Z,23.05
2022-12-11T07:30:10.700Z,18.58
2022-12-11T07:32:37.694Z,25.35
2022-12-11T07:35:05.103Z,16.48
2022-12-11T07:37:31.834Z,22.48
2022-12-11T07:39:58.561Z,25.98
2022-12-11T07:42:28.006Z,23.83
2022-12-11T07:44:54.732Z,27.00
2022-12-11T07:47:22.824Z,20.23
2022-12-11T07:49:49.517Z,26.67
2022-12-11T07:52:19.200Z,25.73
2022-12-11T07:54:45.924Z,27.77
2022-12-11T07:57:14.320Z,17.98
2022-12-11T07:59:41.214Z,14.57
2022-12-11T08:02:09.941Z,28.95
2022-12-11T08:04:42.286Z,15.48
2022-12-11T08:07:10.556Z,25.63
2022-12-11T08:09:37.278Z,25.92
2022-12-11T08:12:10.447Z,21.67
2022-12-11T08:14:43.349Z,24.67
2022-12-11T08:17:10.100Z,27.25
2022-12-11T08:19:38.326Z,26.58
2022-12-11T08:22:05.027Z,20.30
2022-12-11T08:24:31.821Z,27.60
2022-12-11T08:26:58.503Z,29.85
2022-12-11T08:29:25.226Z,29.15
2022-12-11T08:31:51.969Z,28.85
2022-12-11T08:34:18.703Z,23.90
2022-12-11T08:36:46.842Z,20.42
2022-12-11T08:39:13.584Z,32.60
2022-12-11T08:41:44.304Z,27.45
2022-12-11T08:44:16.345Z,17.98
2022-12-11T08:46:43.984Z,26.85
2022-12-11T08:49:10.756Z,27.13
2022-12-11T08:51:40.262Z,23.73
2022-12-11T08:54:09.736Z,23.90
2022-12-11T08:56:36.452Z,26.13
2022-12-11T08:59:03.231Z,26.63
2022-12-11T09:01:30.047Z,24.85
2022-12-11T09:03:58.674Z,22.38
2022-12-11T09:06:29.915Z,22.80
2022-12-11T09:08:59.681Z,18.85
2022-12-11T09:11:32.172Z,19.80
2022-12-11T09:14:05.204Z,18.58
2022-12-11T09:16:38.312Z,20.08
2022-12-11T09:19:06.997Z,17.75
2022-12-11T09:21:34.163Z,20.95
2022-12-11T09:24:01.494Z,23.55
2022-12-11T09:26:30.054Z,20.83
2022-12-11T09:28:56.781Z,20.90
2022-12-11T09:31:27.329Z,23.40
2022-12-11T09:33:56.451Z,24.98
2022-12-11T09:36:26.459Z,21.27
2022-12-11T09:38:53.708Z,19.92
2022-12-11T09:41:35.598Z,22.55
2022-12-11T09:44:15.594Z,22.80
2022-12-11T09:46:44.728Z,23.05
2022-12-11T09:51:46.900Z,19.50
2022-12-11T09:54:17.906Z,19.67
2022-12-11T09:56:56.242Z,25.70
2022-12-11T09:59:31.639Z,22.40
2022-12-11T10:02:03.366Z,23.70
2022-12-11T10:04:44.846Z,33.80
2022-12-11T10:07:15.217Z,28.15
2022-12-11T10:09:49.697Z,25.05
2022-12-11T10:12:31.875Z,22.73
2022-12-11T10:15:27.928Z,27.85
2022-12-11T10:18:04.695Z,29.45
2022-12-11T10:20:34.751Z,22.48
2022-12-11T10:23:02.457Z,27.30
2022-12-11T10:25:32.517Z,26.70
2022-12-11T10:28:08.689Z,29.17
2022-12-11T10:30:37.982Z,26.30
2022-12-11T10:33:14.113Z,22.00
2022-12-11T10:35:47.710Z,25.35
2022-12-11T10:38:16.963Z,23.50
2022-12-11T10:40:45.861Z,25.10
2022-12-11T10:43:13.914Z,22.50
2022-12-11T10:48:16.526Z,24.73
2022-12-11T10:50:54.381Z,25.15
2022-12-11T10:53:21.712Z,26.67
2022-12-11T10:55:49.146Z,21.70
2022-12-11T10:58:20.609Z,25.05
2022-12-11T11:01:02.556Z,26.60
2022-12-11T11:03:29.399Z,23.25
2022-12-11T11:06:06.757Z,23.80
2022-12-11T11:08:41.712Z,27.73
2022-12-11T11:11:22.229Z,24.25
2022-12-11T11:14:04.779Z,31.17
2022-12-11T11:16:32.005Z,19.52
2022-12-11T11:18:58.990Z,32.40
2022-12-11T11:21:26.911Z,39.45
2022-12-11T11:23:55.705Z,40.70
2022-12-11T11:26:23.138Z,33.28
2022-12-11T11:28:53.967Z,28.02
2022-12-11T11:31:30.241Z,24.20
2022-12-11T11:34:02.808Z,27.27
2022-12-11T11:36:32.312Z,22.67
2022-12-11T11:39:14.356Z,20.40
2022-12-11T11:41:46.611Z,23.55
2022-12-11T11:44:19.858Z,24.13
2022-12-11T11:46:53.366Z,29.98
2022-12-11T11:49:27.410Z,21.50
2022-12-11T11:51:58.965Z,25.17
2022-12-11T11:54:33.056Z,24.50
2022-12-11T11:57:05.270Z,24.60
2022-12-11T11:59:39.972Z,26.70
2022-12-11T12:02:14.522Z,17.85
2022-12-11T12:04:41.637Z,28.25
2022-12-11T12:07:21.402Z,23.80
2022-12-11T12:09:55.170Z,23.02
2022-12-11T12:12:37.665Z,23.00
2022-12-11T12:15:23.222Z,28.17
2022-12-11T12:17:55.861Z,20.30
2022-12-11T12:20:30.868Z,28.67
2022-12-11T12:23:09.926Z,28.52
2022-12-11T12:25:41.864Z,19.40
2022-12-11T12:28:20.682Z,28.17
2022-12-11T12:31:07.668Z,22.92
2022-12-11T12:33:46.856Z,25.83
2022-12-11T12:36:21.654Z,26.10
2022-12-11T12:38:53.628Z,23.70
2022-12-11T12:41:24.630Z,28.52
2022-12-11T12:44:08.939Z,28.98
2022-12-11T12:46:49.276Z,25.30
2022-12-11T12:49:38.030Z,24.52
2022-12-11T12:52:10.191Z,27.17
2022-12-11T12:54:38.268Z,22.65
2022-12-11T12:57:08.496Z,27.27
2022-12-11T12:59:35.248Z,28.45
2022-12-11T13:02:04.944Z,23.90
2022-12-11T13:07:28.503Z,23.30
2022-12-11T13:10:05.292Z,25.00
2022-12-11T13:12:43.483Z,20.83
2022-12-11T13:15:32.629Z,23.65
2022-12-11T13:18:25.505Z,28.02
2022-12-11T13:20:53.586Z,27.08
2022-12-11T13:23:27.401Z,24.03
2022-12-11T13:25:56.230Z,28.15
2022-12-11T13:28:29.217Z,28.80
2022-12-11T13:31:06.620Z,28.00
2022-12-11T13:33:41.413Z,18.70
2022-12-11T13:36:29.293Z,28.95
2022-12-11T13:38:59.729Z,30.65
2022-12-11T13:41:27.748Z,29.58
2022-12-11T13:43:57.708Z,34.13
2022-12-11T13:46:27.836Z,31.50
2022-12-11T13:48:57.236Z,25.50
2022-12-11T13:51:26.036Z,24.50
2022-12-11T13:56:31.530Z,19.00
2022-12-11T13:58:58.258Z,24.88
2022-12-11T14:01:27.602Z,19.65
2022-12-11T14:03:57.020Z,25.33
2022-12-11T14:06:24.845Z,23.90
2022-12-11T14:08:55.196Z,31.35
2022-12-11T14:11:25.633Z,19.85
2022-12-11T14:13:57.668Z,26.70
2022-12-11T14:16:27.541Z,28.92
2022-12-11T14:18:58.235Z,32.15
2022-12-11T14:21:26.221Z,23.88
2022-12-11T14:23:54.232Z,18.48
2022-12-11T14:26:26.218Z,25.77
2022-12-11T14:28:53.705Z,22.25
2022-12-11T14:31:29.305Z,22.77
2022-12-11T14:34:00.691Z,19.05
2022-12-11T14:36:28.905Z,26.02
2022-12-11T14:39:00.406Z,27.52
2022-12-11T14:41:36.198Z,22.52
2022-12-11T14:44:07.994Z,18.80
2022-12-11T14:46:42.455Z,16.40
2022-12-11T14:49:17.635Z,26.27
2022-12-11T14:51:44.904Z,23.45
2022-12-11T14:54:20.376Z,26.48
2022-12-11T14:56:49.130Z,22.90
2022-12-11T14:59:21.365Z,25.30
2022-12-11T15:01:57.544Z,28.95
2022-12-11T15:04:31.277Z,23.98
2022-12-11T15:06:59.868Z,25.88
2022-12-11T15:09:29.441Z,23.98
2022-12-11T15:12:07.545Z,25.65
2022-12-11T15:14:34.745Z,21.33
2022-12-11T15:17:03.270Z,24.70
2022-12-11T15:19:32.498Z,25.48
2022-12-11T15:22:05.457Z,17.83
2022-12-11T15:24:38.517Z,28.65
2022-12-11T15:27:24.042Z,27.17
2022-12-11T15:29:50.833Z,20.60
2022-12-11T15:32:19.253Z,21.50
2022-12-11T15:34:48.438Z,20.30
2022-12-11T15:37:20.230Z,27.80
2022-12-11T15:39:49.832Z,27.00
2022-12-11T15:42:24.338Z,26.13
2022-12-11T15:44:51.414Z,21.60
2022-12-11T15:47:21.816Z,25.60
2022-12-11T15:49:48.577Z,22.77
2022-12-11T15:52:15.254Z,21.98
2022-12-11T15:54:43.813Z,25.27
2022-12-11T15:57:15.973Z,24.75
2022-12-11T15:59:45.915Z,34.13
2022-12-11T16:02:13.277Z,21.83
2022-12-11T16:04:40.398Z,23.45
2022-12-11T16:07:15.846Z,23.17
2022-12-11T16:09:42.605Z,24.95
2022-12-11T16:12:10.058Z,25.50
2022-12-11T16:14:39.687Z,27.80
2022-12-11T16:17:08.397Z,24.60
2022-12-11T16:19:42.451Z,28.33
2022-12-11T16:22:14.492Z,25.40
2022-12-11T16:24:45.022Z,23.52
2022-12-11T16:27:11.766Z,22.85
2022-12-11T16:29:41.743Z,20.55
2022-12-11T16:32:10.328Z,25.48
2022-12-11T16:34:37.494Z,27.67
2022-12-11T16:37:12.553Z,24.25
2022-12-11T16:39:41.315Z,26.42
2022-12-11T16:42:08.556Z,19.88
2022-12-11T16:44:39.530Z,25.40
2022-12-11T16:47:10.657Z,24.13
2022-12-11T16:49:37.427Z,23.42
2022-12-11T16:52:04.418Z,22.45
2022-12-11T16:54:31.162Z,20.65
2022-12-11T16:56:59.392Z,17.48
2022-12-11T16:59:35.158Z,17.52
2022-12-11T17:02:03.858Z,21.50
2022-12-11T17:04:37.232Z,25.90
2022-12-11T17:07:08.157Z,30.17
2022-12-11T17:09:35.397Z,21.58
2022-12-11T17:12:11.274Z,19.30
2022-12-11T17:14:38.050Z,21.15
2022-12-11T17:17:04.794Z,23.63
2022-12-11T17:19:35.498Z,26.45
2022-12-11T17:22:02.243Z,27.73
2022-12-11T17:24:28.981Z,25.08
2022-12-11T17:27:01.274Z,21.48
2022-12-11T17:29:28.046Z,25.05
2022-12-11T17:31:55.935Z,19.85
2022-12-11T17:34:22.686Z,25.02
2022-12-11T17:36:50.723Z,22.88
2022-12-11T17:39:17.456Z,22.23
2022-12-11T17:41:44.262Z,24.73
2022-12-11T17:44:11.082Z,26.10
2022-12-11T17:46:38.003Z,26.55
2022-12-11T17:49:05.110Z,27.25
2022-12-11T17:51:31.987Z,23.77
2022-12-11T17:54:03.004Z,25.23
2022-12-11T17:56:30.029Z,18.90
2022-12-11T17:58:58.223Z,24.60
2022-12-11T18:01:25.866Z,18.50
2022-12-11T18:03:54.912Z,26.30
2022-12-11T18:08:51.121Z,19.90
2022-12-11T18:11:28.086Z,19.52
2022-12-11T18:13:54.848Z,19.35
2022-12-11T18:16:24.786Z,19.98
2022-12-11T18:18:54.848Z,20.70
2022-12-11T18:21:25.879Z,18.63
2022-12-11T18:23:52.751Z,18.25
2022-12-11T18:26:21.720Z,21.70
2022-12-11T18:31:16.749Z,21.13
2022-12-11T18:33:47.178Z,20.17
2022-12-11T18:36:15.941Z,16.15
2022-12-11T18:38:43.030Z,21.20
2022-12-11T18:41:12.177Z,17.40
2022-12-11T18:43:40.886Z,19.65
2022-12-11T18:46:08.984Z,19.83
2022-12-11T18:48:37.485Z,24.60
2022-12-11T18:51:07.938Z,16.52
2022-12-11T18:53:35.582Z,21.08
2022-12-11T18:56:08.470Z,24.60
2022-12-11T18:58:35.376Z,24.40
2022-12-11T19:01:07.582Z,28.33
2022-12-11T19:03:39.722Z,18.27
2022-12-11T19:06:08.235Z,23.13
2022-12-11T19:08:35.210Z,20.42
2022-12-11T19:11:02.138Z,22.85
2022-12-11T19:13:31.609Z,22.75
2022-12-11T19:16:00.770Z,23.63
2022-12-11T19:18:29.041Z,20.50
2022-12-11T19:21:04.978Z,22.20
2022-12-11T19:23:35.096Z,26.70
2022-12-11T19:26:05.822Z,29.13
2022-12-11T19:28:32.529Z,22.60
2022-12-11T19:30:59.300Z,21.65
2022-12-11T19:33:30.860Z,18.00
2022-12-11T19:36:05.766Z,23.02
2022-12-11T19:38:32.535Z,20.83
2022-12-11T19:40:59.297Z,20.48
2022-12-11T19:43:28.766Z,21.52
2022-12-11T19:45:55.504Z,21.98
2022-12-11T19:48:22.296Z,23.08
2022-12-11T19:50:50.445Z,21.67
2022-12-11T19:53:17.157Z,27.92
2022-12-11T19:55:49.597Z,25.98
2022-12-11T19:58:16.361Z,24.80
2022-12-11T20:00:43.416Z,22.67
2022-12-11T20:03:13.121Z,18.52
2022-12-11T20:05:46.023Z,22.70
2022-12-11T20:08:43.069Z,28.88
2022-12-11T20:11:04.169Z,24.75
2022-12-11T20:13:30.904Z,25.30
2022-12-11T20:15:57.821Z,22.40
2022-12-11T20:18:24.532Z,18.65
2022-12-11T20:20:51.270Z,28.10
2022-12-11T20:23:19.338Z,25.15
2022-12-11T20:25:46.035Z,24.30
2022-12-11T20:28:19.093Z,25.00
2022-12-11T20:30:48.026Z,23.63
2022-12-11T20:33:14.723Z,19.35
2022-12-11T20:35:42.855Z,20.48
2022-12-11T20:38:10.817Z,23.63
2022-12-11T20:40:38.945Z,22.30
2022-12-11T20:43:05.987Z,22.27
2022-12-11T20:45:32.738Z,23.63
2022-12-11T20:48:02.228Z,19.38
2022-12-11T20:50:29.002Z,20.95
2022-12-11T20:52:55.745Z,25.25
2022-12-11T20:55:22.462Z,24.27
2022-12-11T20:57:50.608Z,22.23
2022-12-11T21:00:24.307Z,21.88
2022-12-11T21:02:51.554Z,23.25
2022-12-11T21:05:18.436Z,25.90
2022-12-11T21:07:45.321Z,25.65
2022-12-11T21:10:13.497Z,26.30
2022-12-11T21:12:43.588Z,27.53
2022-12-11T21:15:12.376Z,28.35
2022-12-11T21:20:07.093Z,27.17
2022-12-11T21:22:33.853Z,21.05
2022-12-11T21:25:00.897Z,24.38
2022-12-11T21:27:27.648Z,26.27
2022-12-11T21:29:54.711Z,27.85
2022-12-11T21:32:22.931Z,23.88
2022-12-11T21:34:52.383Z,29.67
2022-12-11T21:37:19.144Z,26.65
2022-12-11T21:39:47.837Z,30.85
2022-12-11T21:42:17.374Z,22.63
2022-12-11T21:47:40.813Z,30.00
2022-12-11T21:50:10.573Z,23.75
2022-12-11T21:52:39.311Z,25.42
2022-12-11T21:55:06.828Z,28.08
2022-12-11T21:57:38.787Z,29.67
2022-12-11T22:00:06.712Z,27.85
2022-12-11T22:02:41.058Z,24.73
2022-12-11T22:05:11.583Z,22.38
2022-12-11T22:07:38.505Z,28.00
2022-12-11T22:10:08.253Z,28.38
2022-12-11T22:12:35.036Z,31.02
2022-12-11T22:15:05.687Z,28.65
2022-12-11T22:17:35.018Z,24.63
2022-12-11T22:20:05.724Z,25.58
2022-12-11T22:22:32.444Z,19.75
2022-12-11T22:24:59.545Z,22.88
2022-12-11T22:27:27.694Z,25.27
2022-12-11T22:29:54.613Z,29.40
2022-12-11T22:32:21.299Z,28.27
2022-12-11T22:34:48.021Z,27.85
2022-12-11T22:37:18.942Z,24.95
2022-12-11T22:39:45.692Z,29.10
2022-12-11T22:42:12.565Z,27.20
2022-12-11T22:44:39.725Z,26.95
2022-12-11T22:47:06.855Z,22.98
2022-12-11T22:49:33.543Z,30.35
2022-12-11T22:52:00.303Z,24.33
2022-12-11T22:54:30.082Z,26.52
2022-12-11T22:56:56.777Z,24.10
2022-12-11T22:59:26.757Z,29.25
2022-12-11T23:01:53.703Z,19.58
2022-12-11T23:04:20.393Z,24.35
2022-12-11T23:06:47.140Z,22.00
2022-12-11T23:09:17.109Z,26.85
2022-12-11T23:11:47.992Z,26.75
2022-12-11T23:14:17.070Z,25.10
2022-12-11T23:16:44.265Z,25.98
2022-12-11T23:19:11.616Z,26.90
2022-12-11T23:21:41.071Z,28.23
2022-12-11T23:24:12.605Z,25.67
2022-12-11T23:26:39.665Z,27.48
2022-12-11T23:29:08.207Z,27.30
2022-12-11T23:31:38.013Z,23.58
2022-12-11T23:34:04.741Z,22.35
2022-12-11T23:36:34.283Z,26.23
2022-12-11T23:39:01.828Z,26.80
2022-12-11T23:41:29.961Z,25.63
2022-12-11T23:43:59.295Z,29.77
2022-12-11T23:46:29.113Z,21.85
2022-12-11T23:48:57.518Z,24.65
2022-12-11T23:51:27.280Z,25.83
2022-12-11T23:53:54.028Z,23.15
2022-12-11T23:56:25.612Z,21.63
2022-12-11T23:58:56.319Z,23.48
